Time;durP1;ratioP1;P1;durP2;ratioP2;P2;SDS_P1;SDS_P2;PMS_P1;PMS_P2;Temp;Humidity;BMP_temperature;BMP_pressure;BME280_temperature;BME280_humidity;BME280_pressure;Samples;Min_cycle;Max_cycle;Signal;HPM_P1;HPM_P2
2021/10/17 00:01:59;;;;;;;20.48;9.48;;;;;;;;;;4943395;28;20047;-58
2021/10/17 00:04:24;;;;;;;17.55;8.98;;;;;;;;;;4946991;28;20747;-58
2021/10/17 00:06:49;;;;;;;25.25;10.50;;;;;;;;;;4947703;28;20398;-59
2021/10/17 00:09:14;;;;;;;23.50;9.82;;;;;;;;;;4940840;28;20489;-58
2021/10/17 00:11:40;;;;;;;24.83;10.38;;;;;;;;;;4947572;28;20035;-58
2021/10/17 00:14:05;;;;;;;18.23;9.73;;;;;;;;;;4942078;29;20414;-59
2021/10/17 00:16:30;;;;;;;25.00;11.70;;;;;;;;;;4944133;28;20047;-61
2021/10/17 00:18:55;;;;;;;23.13;10.75;;;;;;;;;;4946535;28;20187;-59
2021/10/17 00:21:20;;;;;;;26.45;12.25;;;;;;;;;;4946815;28;20044;-59
2021/10/17 00:23:46;;;;;;;23.00;11.23;;;;;;;;;;4947048;28;20027;-59
2021/10/17 00:26:11;;;;;;;26.45;11.07;;;;;;;;;;4946523;28;20035;-59
2021/10/17 00:28:36;;;;;;;22.65;10.93;;;;;;;;;;4945711;29;20031;-58
2021/10/17 00:31:01;;;;;;;35.10;11.88;;;;;;;;;;4944859;28;20039;-58
2021/10/17 00:33:27;;;;;;;22.30;11.40;;;;;;;;;;4939229;28;20027;-58
2021/10/17 00:35:52;;;;;;;20.85;11.35;;;;;;;;;;4947165;28;20114;-58
2021/10/17 00:38:17;;;;;;;20.13;10.40;;;;;;;;;;4946079;28;20038;-59
2021/10/17 00:40:43;;;;;;;20.02;10.45;;;;;;;;;;4945636;28;20055;-59
2021/10/17 00:43:08;;;;;;;34.42;13.73;;;;;;;;;;4934799;28;20548;-58
2021/10/17 00:45:33;;;;;;;27.77;13.15;;;;;;;;;;4941105;28;20557;-59
2021/10/17 00:47:59;;;;;;;26.45;12.38;;;;;;;;;;4940525;29;20052;-59
2021/10/17 00:50:24;;;;;;;35.60;14.07;;;;;;;;;;4943536;28;20043;-59
2021/10/17 00:52:49;;;;;;;34.13;14.55;;;;;;;;;;4946911;29;20042;-59
2021/10/17 00:55:15;;;;;;;36.85;14.50;;;;;;;;;;4942734;28;20035;-59
2021/10/17 00:57:40;;;;;;;30.50;12.93;;;;;;;;;;4942598;28;20149;-59
2021/10/17 01:00:06;;;;;;;31.85;14.00;;;;;;;;;;4939027;28;20023;-59
2021/10/17 01:02:31;;;;;;;30.42;13.27;;;;;;;;;;4937746;29;20071;-59
2021/10/17 01:04:59;;;;;;;25.67;12.35;;;;;;;;;;4943060;28;20019;-59
2021/10/17 01:07:24;;;;;;;21.52;10.82;;;;;;;;;;4945661;28;20041;-59
2021/10/17 01:09:49;;;;;;;25.80;11.63;;;;;;;;;;4945402;29;20385;-59
2021/10/17 01:12:14;;;;;;;21.05;10.80;;;;;;;;;;4945944;28;20582;-59
2021/10/17 01:14:39;;;;;;;24.90;10.82;;;;;;;;;;4940743;28;20023;-59
2021/10/17 01:17:05;;;;;;;19.65;10.98;;;;;;;;;;4946441;28;20043;-59
2021/10/17 01:19:30;;;;;;;21.33;10.60;;;;;;;;;;4946634;28;20433;-59
2021/10/17 01:21:55;;;;;;;23.80;10.55;;;;;;;;;;4942179;28;20035;-59
2021/10/17 01:24:20;;;;;;;27.10;10.68;;;;;;;;;;4936034;28;20455;-59
2021/10/17 01:26:46;;;;;;;28.50;10.55;;;;;;;;;;4942612;28;20115;-59
2021/10/17 01:29:11;;;;;;;19.13;8.93;;;;;;;;;;4941997;28;20034;-59
2021/10/17 01:31:36;;;;;;;18.65;9.55;;;;;;;;;;4941298;28;20837;-59
2021/10/17 01:34:02;;;;;;;26.77;9.13;;;;;;;;;;4946040;28;20019;-59
2021/10/17 01:36:27;;;;;;;25.60;9.15;;;;;;;;;;4939912;28;20036;-59
2021/10/17 01:38:52;;;;;;;17.45;8.52;;;;;;;;;;4945809;29;20285;-59
2021/10/17 01:41:18;;;;;;;19.30;8.90;;;;;;;;;;4941292;28;20067;-59
2021/10/17 01:43:43;;;;;;;24.35;10.40;;;;;;;;;;4945473;29;20098;-59
2021/10/17 01:46:08;;;;;;;21.52;9.63;;;;;;;;;;4946243;28;20043;-59
2021/10/17 01:48:33;;;;;;;24.05;9.75;;;;;;;;;;4942213;28;20043;-59
2021/10/17 01:50:58;;;;;;;24.25;10.10;;;;;;;;;;4944579;28;20043;-59
2021/10/17 01:53:28;;;;;;;22.65;9.52;;;;;;;;;;4951479;28;20062;-59
2021/10/17 01:55:54;;;;;;;28.30;10.75;;;;;;;;;;4940746;28;20045;-59
2021/10/17 01:58:19;;;;;;;23.98;10.02;;;;;;;;;;4937176;28;20510;-59
2021/10/17 02:00:44;;;;;;;21.15;10.35;;;;;;;;;;4939656;28;20138;-59
2021/10/17 02:03:10;;;;;;;23.25;10.32;;;;;;;;;;4940898;28;20038;-59
2021/10/17 02:05:35;;;;;;;27.45;12.07;;;;;;;;;;4940708;28;20057;-59
2021/10/17 02:08:00;;;;;;;29.52;12.65;;;;;;;;;;4945803;28;20039;-59
2021/10/17 02:10:25;;;;;;;25.30;12.73;;;;;;;;;;4937212;28;20028;-59
2021/10/17 02:12:50;;;;;;;23.27;10.55;;;;;;;;;;4942674;29;20133;-59
2021/10/17 02:15:16;;;;;;;25.30;11.02;;;;;;;;;;4939651;28;20106;-59
2021/10/17 02:17:44;;;;;;;28.98;10.90;;;;;;;;;;4944921;28;20263;-59
2021/10/17 02:20:09;;;;;;;24.15;10.98;;;;;;;;;;4944985;28;20035;-59
2021/10/17 02:22:34;;;;;;;24.02;11.68;;;;;;;;;;4946193;28;20588;-59
2021/10/17 02:24:59;;;;;;;16.48;9.88;;;;;;;;;;4948501;28;20023;-59
2021/10/17 02:27:24;;;;;;;27.67;10.82;;;;;;;;;;4944693;28;20035;-59
2021/10/17 02:29:50;;;;;;;23.10;11.30;;;;;;;;;;4946386;28;20067;-59
2021/10/17 02:32:15;;;;;;;19.90;9.95;;;;;;;;;;4942876;28;20130;-59
2021/10/17 02:34:40;;;;;;;24.00;11.32;;;;;;;;;;4947457;28;20019;-59
2021/10/17 02:37:05;;;;;;;26.98;11.82;;;;;;;;;;4948515;28;20109;-59
2021/10/17 02:39:31;;;;;;;23.08;11.10;;;;;;;;;;4945297;28;20027;-59
2021/10/17 02:41:56;;;;;;;23.67;11.55;;;;;;;;;;4940755;28;20040;-59
2021/10/17 02:44:21;;;;;;;20.15;10.75;;;;;;;;;;4943645;28;20035;-59
2021/10/17 02:46:46;;;;;;;26.95;11.15;;;;;;;;;;4938961;28;20054;-59
2021/10/17 02:49:11;;;;;;;24.88;11.07;;;;;;;;;;4948889;28;20024;-59
2021/10/17 02:51:37;;;;;;;23.10;11.00;;;;;;;;;;4941809;28;20039;-59
2021/10/17 02:54:02;;;;;;;23.50;11.52;;;;;;;;;;4948523;28;20035;-59
2021/10/17 02:56:27;;;;;;;26.05;11.32;;;;;;;;;;4945559;28;20042;-59
2021/10/17 02:58:53;;;;;;;22.70;10.93;;;;;;;;;;4944135;28;20078;-59
2021/10/17 03:01:18;;;;;;;24.08;10.38;;;;;;;;;;4939618;28;20067;-59
2021/10/17 03:03:43;;;;;;;27.98;11.32;;;;;;;;;;4941805;28;20106;-59
2021/10/17 03:06:08;;;;;;;28.60;10.80;;;;;;;;;;4944965;28;20031;-59
2021/10/17 03:08:34;;;;;;;26.08;11.70;;;;;;;;;;4948095;28;20035;-59
2021/10/17 03:10:59;;;;;;;22.33;11.07;;;;;;;;;;4949147;28;20035;-59
2021/10/17 03:13:24;;;;;;;18.80;11.13;;;;;;;;;;4948655;28;20126;-59
2021/10/17 03:15:49;;;;;;;22.10;11.82;;;;;;;;;;4948565;28;20046;-59
2021/10/17 03:18:14;;;;;;;20.75;10.52;;;;;;;;;;4943312;28;20043;-59
2021/10/17 03:20:40;;;;;;;19.65;11.15;;;;;;;;;;4952016;28;20035;-59
2021/10/17 03:23:05;;;;;;;29.33;11.30;;;;;;;;;;4941682;29;20035;-59
2021/10/17 03:25:30;;;;;;;23.42;11.32;;;;;;;;;;4943021;28;20870;-59
2021/10/17 03:27:55;;;;;;;22.65;10.90;;;;;;;;;;4954959;28;20028;-59
2021/10/17 03:30:21;;;;;;;19.50;10.95;;;;;;;;;;4947579;28;20038;-58
2021/10/17 03:32:46;;;;;;;27.95;10.82;;;;;;;;;;4944137;28;20046;-59
2021/10/17 03:35:11;;;;;;;23.52;11.98;;;;;;;;;;4947409;28;20106;-58
2021/10/17 03:37:36;;;;;;;18.60;10.10;;;;;;;;;;4948118;28;20089;-58
2021/10/17 03:40:02;;;;;;;22.50;10.82;;;;;;;;;;4942094;28;20492;-59
2021/10/17 03:42:28;;;;;;;22.73;11.60;;;;;;;;;;4943930;28;20027;-58
2021/10/17 03:44:53;;;;;;;20.00;11.15;;;;;;;;;;4943171;29;20583;-58
2021/10/17 03:47:19;;;;;;;21.88;11.02;;;;;;;;;;4947983;28;20046;-58
2021/10/17 03:49:44;;;;;;;24.42;11.05;;;;;;;;;;4947329;28;20498;-59
2021/10/17 03:52:09;;;;;;;24.27;11.38;;;;;;;;;;4943433;28;20333;-58
2021/10/17 03:54:34;;;;;;;25.02;11.15;;;;;;;;;;4947690;28;20035;-59
2021/10/17 03:56:59;;;;;;;23.33;11.65;;;;;;;;;;4940553;28;20048;-58
2021/10/17 03:59:25;;;;;;;21.10;11.15;;;;;;;;;;4946295;28;20149;-58
2021/10/17 04:01:50;;;;;;;20.85;10.63;;;;;;;;;;4947420;28;20039;-58
2021/10/17 04:04:15;;;;;;;23.98;10.85;;;;;;;;;;4939438;28;20469;-59
2021/10/17 04:06:40;;;;;;;28.52;12.05;;;;;;;;;;4945765;28;20066;-58
2021/10/17 04:09:06;;;;;;;26.10;11.35;;;;;;;;;;4940093;28;20023;-59
2021/10/17 04:11:31;;;;;;;26.25;11.05;;;;;;;;;;4943973;28;20063;-59
2021/10/17 04:13:56;;;;;;;27.02;11.07;;;;;;;;;;4944047;28;20476;-59
2021/10/17 04:16:21;;;;;;;23.75;11.10;;;;;;;;;;4947745;28;20039;-58
2021/10/17 04:18:47;;;;;;;24.42;11.30;;;;;;;;;;4945846;28;20027;-58
2021/10/17 04:21:12;;;;;;;33.55;12.40;;;;;;;;;;4946778;28;20035;-58
2021/10/17 04:23:38;;;;;;;29.13;13.45;;;;;;;;;;4937629;28;20051;-59
2021/10/17 04:26:03;;;;;;;29.05;13.57;;;;;;;;;;4951316;28;20541;-58
2021/10/17 04:28:29;;;;;;;24.10;12.07;;;;;;;;;;4947436;28;20027;-61
2021/10/17 04:30:54;;;;;;;26.38;12.18;;;;;;;;;;4945965;28;20063;-59
2021/10/17 04:33:19;;;;;;;23.70;11.98;;;;;;;;;;4946025;28;20082;-59
2021/10/17 04:35:44;;;;;;;27.23;12.63;;;;;;;;;;4947269;28;20438;-58
2021/10/17 04:38:10;;;;;;;26.27;12.13;;;;;;;;;;4933638;28;20039;-58
2021/10/17 04:40:35;;;;;;;23.23;11.80;;;;;;;;;;4939657;28;20035;-59
2021/10/17 04:43:00;;;;;;;25.08;12.93;;;;;;;;;;4935547;29;20061;-59
2021/10/17 04:45:26;;;;;;;27.33;12.68;;;;;;;;;;4938266;28;20039;-59
2021/10/17 04:47:51;;;;;;;22.75;12.40;;;;;;;;;;4947463;28;20271;-59
2021/10/17 04:50:16;;;;;;;25.77;11.75;;;;;;;;;;4944318;28;20572;-59
2021/10/17 04:52:41;;;;;;;36.22;13.57;;;;;;;;;;4945057;28;20434;-59
2021/10/17 04:55:08;;;;;;;27.90;12.48;;;;;;;;;;4935859;28;20037;-60
2021/10/17 04:57:33;;;;;;;25.13;12.35;;;;;;;;;;4941952;28;20035;-59
2021/10/17 04:59:59;;;;;;;27.98;12.90;;;;;;;;;;4946316;28;20020;-59
2021/10/17 05:02:24;;;;;;;30.60;12.90;;;;;;;;;;4937256;28;20043;-58
2021/10/17 05:04:49;;;;;;;26.08;13.27;;;;;;;;;;4932658;29;20031;-59
2021/10/17 05:07:15;;;;;;;22.20;11.95;;;;;;;;;;4942853;28;20541;-59
2021/10/17 05:09:40;;;;;;;28.48;13.52;;;;;;;;;;4956407;28;20043;-59
2021/10/17 05:12:05;;;;;;;27.35;12.18;;;;;;;;;;4944137;28;20043;-59
2021/10/17 05:14:31;;;;;;;19.67;12.00;;;;;;;;;;4928229;29;20051;-59
2021/10/17 05:16:56;;;;;;;27.38;12.60;;;;;;;;;;4944357;28;20466;-59
2021/10/17 05:19:21;;;;;;;29.67;13.40;;;;;;;;;;4941495;28;20035;-59
2021/10/17 05:21:48;;;;;;;26.67;12.98;;;;;;;;;;4939650;28;20036;-59
2021/10/17 05:24:13;;;;;;;31.88;13.02;;;;;;;;;;4945410;28;20023;-59
2021/10/17 05:26:38;;;;;;;24.50;13.13;;;;;;;;;;4940967;28;20046;-58
2021/10/17 05:29:03;;;;;;;24.52;12.90;;;;;;;;;;4946609;28;20019;-59
2021/10/17 05:31:29;;;;;;;24.60;11.68;;;;;;;;;;4941759;28;20035;-58
2021/10/17 05:33:54;;;;;;;27.60;13.50;;;;;;;;;;4946344;29;20063;-59
2021/10/17 05:36:19;;;;;;;23.77;12.82;;;;;;;;;;4939914;28;20171;-59
2021/10/17 05:38:44;;;;;;;25.65;13.10;;;;;;;;;;4944129;28;20401;-58
2021/10/17 05:41:09;;;;;;;22.27;13.05;;;;;;;;;;4942078;28;20927;-59
2021/10/17 05:43:35;;;;;;;33.45;12.65;;;;;;;;;;4938542;28;20038;-58
2021/10/17 05:46:00;;;;;;;27.13;12.95;;;;;;;;;;4940544;28;20200;-59
2021/10/17 05:48:26;;;;;;;21.40;11.85;;;;;;;;;;4947697;29;20114;-59
2021/10/17 05:50:51;;;;;;;22.95;12.20;;;;;;;;;;4941763;28;20174;-59
2021/10/17 05:53:16;;;;;;;24.85;11.93;;;;;;;;;;4944927;28;20035;-58
2021/10/17 05:55:41;;;;;;;23.08;11.60;;;;;;;;;;4935098;28;20115;-58
2021/10/17 05:58:07;;;;;;;23.40;12.57;;;;;;;;;;4947231;28;20150;-58
2021/10/17 06:00:32;;;;;;;28.48;13.68;;;;;;;;;;4940228;29;20079;-59
2021/10/17 06:02:57;;;;;;;25.15;13.35;;;;;;;;;;4941231;29;20027;-58
2021/10/17 06:05:22;;;;;;;29.20;13.40;;;;;;;;;;4938713;28;20167;-61
2021/10/17 06:07:47;;;;;;;23.88;13.48;;;;;;;;;;4940986;28;20031;-61
2021/10/17 06:10:13;;;;;;;27.58;13.70;;;;;;;;;;4946264;28;20910;-61
2021/10/17 06:12:40;;;;;;;28.45;13.93;;;;;;;;;;4947928;28;20070;-61
2021/10/17 06:15:05;;;;;;;28.95;13.30;;;;;;;;;;4942267;28;20031;-60
2021/10/17 06:17:30;;;;;;;29.40;13.82;;;;;;;;;;4941752;28;20043;-59
2021/10/17 06:19:56;;;;;;;29.95;14.70;;;;;;;;;;4940116;29;20481;-58
2021/10/17 06:22:21;;;;;;;27.35;13.45;;;;;;;;;;4946975;28;20532;-58
2021/10/17 06:24:46;;;;;;;26.58;13.43;;;;;;;;;;4942749;28;20106;-61
2021/10/17 06:27:11;;;;;;;39.85;18.77;;;;;;;;;;4943579;28;20039;-58
2021/10/17 06:29:37;;;;;;;35.35;17.85;;;;;;;;;;4940614;28;20024;-60
2021/10/17 06:32:02;;;;;;;30.13;16.13;;;;;;;;;;4941373;28;20145;-59
2021/10/17 06:34:27;;;;;;;22.90;13.02;;;;;;;;;;4946062;28;20117;-59
2021/10/17 06:36:53;;;;;;;30.88;13.82;;;;;;;;;;4944508;28;20036;-59
2021/10/17 06:39:18;;;;;;;31.45;14.55;;;;;;;;;;4944156;28;20031;-59
2021/10/17 06:41:43;;;;;;;25.20;13.35;;;;;;;;;;4946760;28;20425;-59
2021/10/17 06:44:08;;;;;;;27.30;13.10;;;;;;;;;;4939846;28;20595;-59
2021/10/17 06:46:34;;;;;;;26.63;13.02;;;;;;;;;;4944785;28;20035;-59
2021/10/17 06:48:59;;;;;;;23.52;12.40;;;;;;;;;;4940172;28;20343;-59
2021/10/17 06:51:24;;;;;;;23.25;12.35;;;;;;;;;;4942214;28;20694;-59
2021/10/17 06:53:49;;;;;;;23.27;12.52;;;;;;;;;;4944758;28;20035;-59
2021/10/17 06:56:14;;;;;;;18.42;11.52;;;;;;;;;;4946379;28;20067;-59
2021/10/17 06:58:40;;;;;;;25.15;12.43;;;;;;;;;;4944916;28;20054;-60
2021/10/17 07:01:05;;;;;;;21.88;11.77;;;;;;;;;;4940237;28;20494;-59
2021/10/17 07:03:30;;;;;;;26.50;12.15;;;;;;;;;;4946063;28;20823;-59
2021/10/17 07:05:56;;;;;;;24.88;13.23;;;;;;;;;;4945342;28;20458;-60
2021/10/17 07:08:21;;;;;;;23.30;12.70;;;;;;;;;;4948881;28;20027;-59
2021/10/17 07:10:47;;;;;;;29.85;12.38;;;;;;;;;;4947879;28;20031;-60
2021/10/17 07:13:12;;;;;;;23.77;13.45;;;;;;;;;;4943210;28;20086;-59
2021/10/17 07:15:37;;;;;;;30.08;14.82;;;;;;;;;;4945221;28;20043;-59
2021/10/17 07:18:02;;;;;;;25.63;12.65;;;;;;;;;;4949390;28;20082;-60
2021/10/17 07:20:28;;;;;;;27.02;12.20;;;;;;;;;;4953820;28;20035;-59
2021/10/17 07:22:53;;;;;;;27.65;13.18;;;;;;;;;;4947587;28;20453;-65
2021/10/17 07:25:18;;;;;;;23.17;12.05;;;;;;;;;;4943465;28;20024;-64
2021/10/17 07:27:44;;;;;;;27.27;12.63;;;;;;;;;;4942189;28;20031;-64
2021/10/17 07:30:09;;;;;;;19.10;11.02;;;;;;;;;;4960500;28;20466;-66
2021/10/17 07:32:34;;;;;;;21.35;11.90;;;;;;;;;;4948759;29;20074;-64
2021/10/17 07:34:59;;;;;;;23.40;11.43;;;;;;;;;;4943974;28;20532;-64
2021/10/17 07:37:25;;;;;;;26.58;12.02;;;;;;;;;;4939408;28;20078;-64
2021/10/17 07:39:50;;;;;;;23.08;12.05;;;;;;;;;;4940057;29;20067;-64
2021/10/17 07:42:15;;;;;;;28.67;12.20;;;;;;;;;;4947945;28;20042;-64
2021/10/17 07:44:40;;;;;;;22.77;11.63;;;;;;;;;;4946233;28;20042;-64
2021/10/17 07:47:06;;;;;;;28.83;13.30;;;;;;;;;;4946302;28;20126;-64
2021/10/17 07:49:31;;;;;;;23.27;12.60;;;;;;;;;;4943543;28;20031;-65
2021/10/17 07:51:56;;;;;;;25.75;12.85;;;;;;;;;;4947243;28;20375;-64
2021/10/17 07:54:21;;;;;;;24.58;11.88;;;;;;;;;;4943159;28;20031;-64
2021/10/17 07:56:47;;;;;;;24.92;11.90;;;;;;;;;;4943954;28;20118;-65
2021/10/17 07:59:12;;;;;;;43.67;22.90;;;;;;;;;;4947566;28;20070;-65
2021/10/17 08:01:37;;;;;;;30.50;14.63;;;;;;;;;;4944393;28;20072;-64
2021/10/17 08:04:02;;;;;;;26.30;13.13;;;;;;;;;;4941388;28;20041;-65
2021/10/17 08:06:28;;;;;;;60.10;26.08;;;;;;;;;;4946258;28;20039;-64
2021/10/17 08:08:53;;;;;;;26.58;13.77;;;;;;;;;;4943132;28;20513;-64
2021/10/17 08:11:19;;;;;;;21.73;12.32;;;;;;;;;;4944808;28;20027;-64
2021/10/17 08:13:44;;;;;;;21.92;11.52;;;;;;;;;;4942317;28;20571;-64
2021/10/17 08:16:10;;;;;;;19.40;11.18;;;;;;;;;;4946552;28;20115;-65
2021/10/17 08:18:35;;;;;;;19.15;11.50;;;;;;;;;;4947773;28;20126;-65
2021/10/17 08:21:00;;;;;;;23.58;11.40;;;;;;;;;;4947454;28;20122;-65
2021/10/17 08:23:26;;;;;;;25.70;11.73;;;;;;;;;;4938632;28;20095;-64
2021/10/17 08:25:51;;;;;;;22.45;11.85;;;;;;;;;;4940376;28;20221;-64
2021/10/17 08:28:17;;;;;;;33.13;15.35;;;;;;;;;;4937327;28;20042;-65
2021/10/17 08:30:44;;;;;;;44.72;18.00;;;;;;;;;;4945319;28;20041;-64
2021/10/17 08:33:09;;;;;;;26.00;12.75;;;;;;;;;;4932636;29;20030;-65
2021/10/17 08:35:34;;;;;;;31.27;13.57;;;;;;;;;;4941130;28;20041;-65
2021/10/17 08:38:00;;;;;;;29.80;13.13;;;;;;;;;;4941115;28;20061;-65
2021/10/17 08:40:25;;;;;;;27.23;12.60;;;;;;;;;;4943298;28;20130;-65
2021/10/17 08:42:50;;;;;;;29.40;13.98;;;;;;;;;;4947615;28;20701;-65
2021/10/17 08:45:15;;;;;;;34.22;15.00;;;;;;;;;;4945104;28;20560;-65
2021/10/17 08:47:41;;;;;;;22.30;13.43;;;;;;;;;;4957208;28;20035;-65
2021/10/17 08:50:06;;;;;;;27.27;13.35;;;;;;;;;;4939920;28;20015;-65
2021/10/17 08:52:32;;;;;;;26.77;12.38;;;;;;;;;;4937018;29;20046;-65
2021/10/17 08:54:57;;;;;;;27.08;13.05;;;;;;;;;;4955861;28;20023;-65
2021/10/17 08:57:22;;;;;;;26.42;13.55;;;;;;;;;;4945869;28;20062;-65
2021/10/17 08:59:48;;;;;;;25.45;13.10;;;;;;;;;;4946532;28;20430;-65
2021/10/17 09:02:13;;;;;;;29.42;14.00;;;;;;;;;;4945971;28;20047;-65
2021/10/17 09:04:39;;;;;;;27.25;12.35;;;;;;;;;;4937364;28;20532;-65
2021/10/17 09:07:17;;;;;;;17.42;11.13;;;;;;;;;;4942170;28;20413;-66
2021/10/17 09:09:42;;;;;;;26.88;11.68;;;;;;;;;;4948301;28;20592;-65
2021/10/17 09:12:07;;;;;;;26.00;13.63;;;;;;;;;;4941882;28;20168;-65
2021/10/17 09:14:34;;;;;;;26.58;14.68;;;;;;;;;;4935246;29;20122;-65
2021/10/17 09:16:59;;;;;;;21.20;12.45;;;;;;;;;;4930521;28;20119;-65
2021/10/17 09:19:31;;;;;;;26.27;14.25;;;;;;;;;;4947894;28;20145;-65
2021/10/17 09:21:56;;;;;;;33.08;16.98;;;;;;;;;;4951205;28;20130;-65
2021/10/17 09:24:25;;;;;;;24.15;14.70;;;;;;;;;;4952937;28;20897;-65
2021/10/17 09:27:02;;;;;;;33.15;14.05;;;;;;;;;;4937782;28;20119;-65
2021/10/17 09:29:28;;;;;;;24.60;10.75;;;;;;;;;;4942889;29;20020;-65
2021/10/17 09:31:53;;;;;;;21.00;10.57;;;;;;;;;;4944213;28;20094;-65
2021/10/17 09:34:25;;;;;;;25.15;10.68;;;;;;;;;;4950480;28;20129;-65
2021/10/17 09:36:50;;;;;;;46.63;19.70;;;;;;;;;;4952339;28;20066;-65
2021/10/17 09:39:18;;;;;;;35.90;14.90;;;;;;;;;;4945095;29;20505;-65
2021/10/17 09:41:50;;;;;;;31.40;15.20;;;;;;;;;;4946364;28;20059;-65
2021/10/17 09:44:15;;;;;;;17.77;10.02;;;;;;;;;;4946406;28;20023;-66
2021/10/17 09:46:56;;;;;;;20.10;9.85;;;;;;;;;;4946598;28;20038;-65
2021/10/17 09:49:22;;;;;;;16.85;9.27;;;;;;;;;;4951122;29;20370;-65
2021/10/17 09:51:47;;;;;;;38.30;14.25;;;;;;;;;;4942902;28;20441;-64
2021/10/17 09:54:13;;;;;;;22.95;10.98;;;;;;;;;;4951921;28;20186;-65
2021/10/17 09:56:39;;;;;;;16.17;10.98;;;;;;;;;;4945569;28;20027;-65
2021/10/17 09:59:05;;;;;;;21.60;10.55;;;;;;;;;;4952522;28;20038;-65
2021/10/17 10:01:31;;;;;;;19.73;10.45;;;;;;;;;;4952830;28;20101;-65
2021/10/17 10:03:56;;;;;;;21.00;9.10;;;;;;;;;;4952902;28;20035;-65
2021/10/17 10:06:22;;;;;;;22.80;10.32;;;;;;;;;;4937496;28;20182;-65
2021/10/17 10:08:47;;;;;;;18.85;9.93;;;;;;;;;;4959697;28;20031;-64
2021/10/17 10:11:13;;;;;;;16.20;9.13;;;;;;;;;;4951618;28;20037;-64
2021/10/17 10:13:38;;;;;;;18.88;10.15;;;;;;;;;;4951521;28;20035;-64
2021/10/17 10:16:04;;;;;;;19.20;9.02;;;;;;;;;;4929703;29;20078;-64
2021/10/17 10:18:29;;;;;;;20.98;8.85;;;;;;;;;;4951064;28;20035;-65
2021/10/17 10:20:54;;;;;;;19.50;9.35;;;;;;;;;;4950208;28;20042;-64
2021/10/17 10:23:20;;;;;;;43.00;16.08;;;;;;;;;;4940348;28;20594;-66
2021/10/17 10:25:47;;;;;;;18.73;9.68;;;;;;;;;;4935622;29;20408;-65
2021/10/17 10:28:12;;;;;;;16.77;9.30;;;;;;;;;;4950141;28;20509;-65
2021/10/17 10:30:38;;;;;;;22.80;11.35;;;;;;;;;;4948729;28;20083;-64
2021/10/17 10:33:13;;;;;;;27.23;11.32;;;;;;;;;;4945274;28;20027;-64
2021/10/17 10:35:57;;;;;;;39.60;17.13;;;;;;;;;;4945034;28;20040;-65
2021/10/17 10:38:45;;;;;;;17.10;9.18;;;;;;;;;;4945697;28;20035;-64
2021/10/17 10:41:14;;;;;;;13.30;8.05;;;;;;;;;;4949036;28;20070;-64
2021/10/17 10:43:40;;;;;;;16.48;8.50;;;;;;;;;;4958344;28;20202;-65
2021/10/17 10:46:05;;;;;;;17.65;8.40;;;;;;;;;;4947122;28;20090;-64
2021/10/17 10:48:30;;;;;;;22.30;8.52;;;;;;;;;;4944488;28;20022;-65
2021/10/17 10:50:57;;;;;;;15.90;8.23;;;;;;;;;;4947791;28;20086;-64
2021/10/17 10:53:41;;;;;;;17.38;9.13;;;;;;;;;;4946253;28;20031;-65
2021/10/17 10:56:06;;;;;;;19.05;9.73;;;;;;;;;;4938395;28;20044;-64
2021/10/17 10:58:36;;;;;;;16.77;9.80;;;;;;;;;;4945169;28;20046;-65
2021/10/17 11:01:01;;;;;;;18.58;10.52;;;;;;;;;;4948935;28;20043;-64
2021/10/17 11:03:26;;;;;;;20.45;10.18;;;;;;;;;;4948790;28;20070;-64
2021/10/17 11:06:04;;;;;;;18.45;9.80;;;;;;;;;;4947675;28;20086;-64
2021/10/17 11:08:29;;;;;;;20.42;9.45;;;;;;;;;;4946401;28;20019;-64
2021/10/17 11:10:54;;;;;;;18.45;9.73;;;;;;;;;;4952822;28;20094;-63
2021/10/17 11:13:29;;;;;;;19.60;9.18;;;;;;;;;;4941309;28;20123;-63
2021/10/17 11:15:55;;;;;;;17.05;9.02;;;;;;;;;;4941735;28;20087;-64
2021/10/17 11:18:20;;;;;;;21.02;9.48;;;;;;;;;;4948013;28;20430;-64
2021/10/17 11:20:46;;;;;;;14.25;9.00;;;;;;;;;;4937433;28;20036;-64
2021/10/17 11:23:21;;;;;;;16.77;9.23;;;;;;;;;;4945063;28;20039;-64
2021/10/17 11:26:09;;;;;;;19.98;9.38;;;;;;;;;;4939604;28;20113;-64
2021/10/17 11:28:35;;;;;;;16.33;9.13;;;;;;;;;;4940521;28;20035;-64
2021/10/17 11:31:01;;;;;;;15.73;8.55;;;;;;;;;;4946987;28;20043;-64
2021/10/17 11:33:27;;;;;;;17.95;9.07;;;;;;;;;;4942231;28;20236;-64
2021/10/17 11:35:54;;;;;;;19.55;9.70;;;;;;;;;;4946384;28;20723;-64
2021/10/17 11:38:19;;;;;;;17.83;9.65;;;;;;;;;;4933213;28;20047;-64
2021/10/17 11:40:44;;;;;;;18.95;8.40;;;;;;;;;;4946761;28;20027;-64
2021/10/17 11:43:10;;;;;;;18.70;8.40;;;;;;;;;;4947613;28;20031;-63
2021/10/17 11:45:41;;;;;;;13.50;8.68;;;;;;;;;;4942824;28;20050;-63
2021/10/17 11:48:07;;;;;;;11.18;5.95;;;;;;;;;;4946760;28;20067;-63
2021/10/17 11:50:33;;;;;;;14.00;7.65;;;;;;;;;;4936579;28;20094;-63
2021/10/17 11:53:08;;;;;;;15.57;7.03;;;;;;;;;;4943245;29;20042;-63
2021/10/17 11:55:40;;;;;;;9.40;5.45;;;;;;;;;;4947540;28;20036;-64
2021/10/17 11:58:11;;;;;;;10.77;5.55;;;;;;;;;;4940229;28;20395;-63
2021/10/17 12:00:36;;;;;;;6.90;4.20;;;;;;;;;;4928903;28;20188;-64
2021/10/17 12:03:01;;;;;;;10.38;4.50;;;;;;;;;;4943488;29;20632;-64
2021/10/17 12:05:27;;;;;;;11.23;5.20;;;;;;;;;;4944163;28;20042;-63
2021/10/17 12:07:58;;;;;;;10.77;6.57;;;;;;;;;;4945065;28;20042;-63
2021/10/17 12:10:26;;;;;;;12.10;3.83;;;;;;;;;;4944538;28;20032;-63
2021/10/17 12:12:52;;;;;;;6.70;3.95;;;;;;;;;;4945812;28;20050;-63
2021/10/17 12:15:17;;;;;;;11.60;4.40;;;;;;;;;;4971056;28;20023;-64
2021/10/17 12:17:42;;;;;;;9.07;4.07;;;;;;;;;;4947243;28;20074;-63
2021/10/17 12:20:11;;;;;;;8.30;3.58;;;;;;;;;;4940562;28;20030;-64
2021/10/17 12:22:42;;;;;;;7.25;3.42;;;;;;;;;;4951008;28;20027;-64
2021/10/17 12:25:08;;;;;;;7.57;3.72;;;;;;;;;;4941968;28;20035;-64
2021/10/17 12:27:33;;;;;;;6.95;3.40;;;;;;;;;;4938366;28;20034;-64
2021/10/17 12:30:12;;;;;;;10.43;3.60;;;;;;;;;;4946949;28;20134;-65
2021/10/17 12:32:42;;;;;;;9.20;3.58;;;;;;;;;;4944936;28;20127;-64
2021/10/17 12:35:28;;;;;;;11.53;3.53;;;;;;;;;;4930904;28;20115;-65
2021/10/17 12:37:53;;;;;;;11.05;4.25;;;;;;;;;;4942812;28;20035;-64
2021/10/17 12:40:18;;;;;;;10.32;3.63;;;;;;;;;;4945892;28;20027;-64
2021/10/17 12:42:46;;;;;;;9.73;3.72;;;;;;;;;;4941384;28;20142;-64
2021/10/17 12:45:12;;;;;;;6.47;3.33;;;;;;;;;;4936846;28;20034;-65
2021/10/17 12:47:41;;;;;;;9.20;3.72;;;;;;;;;;4942734;28;20035;-63
2021/10/17 12:50:13;;;;;;;9.20;4.18;;;;;;;;;;4944222;28;20025;-66
2021/10/17 12:52:38;;;;;;;7.78;3.33;;;;;;;;;;4942382;28;20139;-65
2021/10/17 12:55:04;;;;;;;7.25;3.80;;;;;;;;;;4944850;28;20544;-63
2021/10/17 12:57:29;;;;;;;11.20;5.95;;;;;;;;;;4942624;29;20070;-63
2021/10/17 12:59:55;;;;;;;9.93;4.68;;;;;;;;;;4945897;28;20031;-63
2021/10/17 13:02:20;;;;;;;10.10;3.80;;;;;;;;;;4942439;28;20035;-63
2021/10/17 13:04:59;;;;;;;8.90;4.40;;;;;;;;;;4944336;28;20095;-65
2021/10/17 13:07:24;;;;;;;8.50;3.92;;;;;;;;;;4942761;28;20031;-65
2021/10/17 13:09:50;;;;;;;10.30;4.43;;;;;;;;;;4939037;28;20027;-63
2021/10/17 13:12:15;;;;;;;7.78;4.00;;;;;;;;;;4950217;28;20049;-63
2021/10/17 13:14:59;;;;;;;12.20;6.97;;;;;;;;;;4937974;28;20035;-63
2021/10/17 13:17:25;;;;;;;17.08;13.10;;;;;;;;;;4943271;28;20036;-65
2021/10/17 13:19:50;;;;;;;9.30;4.07;;;;;;;;;;4938527;28;20379;-65
2021/10/17 13:22:15;;;;;;;8.77;3.90;;;;;;;;;;4943674;28;20042;-65
2021/10/17 13:24:40;;;;;;;7.95;4.00;;;;;;;;;;4945243;28;20051;-63
2021/10/17 13:27:08;;;;;;;10.60;4.50;;;;;;;;;;4944048;28;20058;-63
2021/10/17 13:29:34;;;;;;;9.48;6.22;;;;;;;;;;4940822;28;20352;-63
2021/10/17 13:32:02;;;;;;;6.38;3.63;;;;;;;;;;4944880;28;20043;-64
2021/10/17 13:34:27;;;;;;;7.32;3.95;;;;;;;;;;4941184;28;20138;-63
2021/10/17 13:36:53;;;;;;;8.43;3.83;;;;;;;;;;4951632;28;20137;-65
2021/10/17 13:39:18;;;;;;;7.90;3.67;;;;;;;;;;4946566;28;20035;-64
2021/10/17 13:41:43;;;;;;;9.60;3.75;;;;;;;;;;4947437;28;20130;-65
2021/10/17 13:44:08;;;;;;;5.15;3.30;;;;;;;;;;4943449;28;20110;-65
2021/10/17 13:46:36;;;;;;;5.60;2.97;;;;;;;;;;4941171;28;20182;-65
2021/10/17 13:49:01;;;;;;;7.78;3.80;;;;;;;;;;4945079;28;20023;-63
2021/10/17 13:51:26;;;;;;;4.80;3.03;;;;;;;;;;4941629;28;20050;-64
2021/10/17 13:53:53;;;;;;;8.32;3.50;;;;;;;;;;4944789;29;20035;-64
2021/10/17 13:56:18;;;;;;;6.57;3.78;;;;;;;;;;4939145;28;20039;-64
2021/10/17 13:58:44;;;;;;;5.97;3.78;;;;;;;;;;4940228;28;20038;-64
2021/10/17 14:01:09;;;;;;;6.90;3.80;;;;;;;;;;4941102;28;20028;-63
2021/10/17 14:03:34;;;;;;;6.18;3.45;;;;;;;;;;4940862;28;20023;-63
2021/10/17 14:06:00;;;;;;;8.48;4.68;;;;;;;;;;4944035;28;20715;-63
2021/10/17 14:08:25;;;;;;;12.23;5.03;;;;;;;;;;4944676;28;20027;-63
2021/10/17 14:10:51;;;;;;;10.27;5.45;;;;;;;;;;4948319;28;20139;-63
2021/10/17 14:13:17;;;;;;;9.27;5.00;;;;;;;;;;4943992;29;20047;-64
2021/10/17 14:15:42;;;;;;;11.95;4.88;;;;;;;;;;4946543;28;20802;-63
2021/10/17 14:18:10;;;;;;;10.80;4.47;;;;;;;;;;4941414;28;20046;-63